createdAt,value
2022-10-09T00:06:35.685Z,9.80
2022-10-09T00:09:04.371Z,9.70
2022-10-09T00:11:33.161Z,9.80
2022-10-09T00:14:00.932Z,10.00
2022-10-09T00:16:28.783Z,9.80
2022-10-09T00:18:56.115Z,9.60
2022-10-09T00:23:51.414Z,9.60
2022-10-09T00:26:19.154Z,9.40
2022-10-09T00:28:46.862Z,9.70
2022-10-09T00:31:14.393Z,9.70
2022-10-09T00:33:41.386Z,9.80
2022-10-09T00:36:11.252Z,9.70
2022-10-09T00:38:38.110Z,9.90
2022-10-09T00:41:05.976Z,9.70
2022-10-09T00:43:42.007Z,9.40
2022-10-09T00:46:24.342Z,9.50
2022-10-09T00:49:20.738Z,9.50
2022-10-09T00:51:49.967Z,10.20
2022-10-09T00:54:21.062Z,9.50
2022-10-09T00:56:49.044Z,9.80
2022-10-09T00:59:17.918Z,9.60
2022-10-09T01:01:45.747Z,9.30
2022-10-09T01:04:12.807Z,10.20
2022-10-09T01:06:57.824Z,9.40
2022-10-09T01:09:54.126Z,9.40
2022-10-09T01:12:39.136Z,9.10
2022-10-09T01:15:21.314Z,9.40
2022-10-09T01:18:06.267Z,9.50
2022-10-09T01:20:56.697Z,9.30
2022-10-09T01:23:37.310Z,9.30
2022-10-09T01:26:16.623Z,9.60
2022-10-09T01:28:49.110Z,9.90
2022-10-09T01:31:18.078Z,9.30
2022-10-09T01:33:46.743Z,9.10
2022-10-09T01:36:15.081Z,9.30
2022-10-09T01:38:43.791Z,9.10
2022-10-09T01:41:10.800Z,9.30
2022-10-09T01:46:31.954Z,9.70
2022-10-09T01:49:17.025Z,9.60
2022-10-09T01:51:54.289Z,9.50
2022-10-09T01:54:43.732Z,9.70
2022-10-09T01:57:13.906Z,9.80
2022-10-09T01:59:44.470Z,9.80
2022-10-09T02:02:12.009Z,9.60
2022-10-09T02:04:42.234Z,9.70
2022-10-09T02:07:09.742Z,10.40
2022-10-09T02:09:39.328Z,9.60
2022-10-09T02:12:09.974Z,9.40
2022-10-09T02:14:37.180Z,9.60
2022-10-09T02:17:13.059Z,9.50
2022-10-09T02:19:52.320Z,9.10
2022-10-09T02:22:26.067Z,9.40
2022-10-09T02:24:53.159Z,9.10
2022-10-09T02:27:21.995Z,9.10
2022-10-09T02:29:49.802Z,9.50
2022-10-09T02:32:17.062Z,9.00
2022-10-09T02:34:44.035Z,8.90
2022-10-09T02:37:11.037Z,9.30
2022-10-09T02:39:37.853Z,9.10
2022-10-09T02:42:05.211Z,8.90
2022-10-09T02:46:59.355Z,8.80
2022-10-09T02:49:26.183Z,9.10
2022-10-09T02:51:53.079Z,8.80
2022-10-09T02:54:20.112Z,9.30
2022-10-09T02:56:46.945Z,9.40
2022-10-09T03:01:41.232Z,9.40
2022-10-09T03:04:08.195Z,9.00
2022-10-09T03:06:35.371Z,9.10
2022-10-09T03:09:02.245Z,9.40
2022-10-09T03:11:29.164Z,9.00
2022-10-09T03:13:56.292Z,9.40
2022-10-09T03:16:25.053Z,9.20
2022-10-09T03:18:52.974Z,9.30
2022-10-09T03:21:25.426Z,9.20
2022-10-09T03:23:53.493Z,9.00
2022-10-09T03:26:22.877Z,9.10
2022-10-09T03:28:51.525Z,9.00
2022-10-09T03:31:50.551Z,8.90
2022-10-09T03:34:07.711Z,8.90
2022-10-09T03:36:34.696Z,8.80
2022-10-09T03:39:01.545Z,8.70
2022-10-09T03:41:28.456Z,8.90
2022-10-09T03:43:55.353Z,9.00
2022-10-09T03:46:22.250Z,8.70
2022-10-09T03:48:49.134Z,8.60
2022-10-09T03:51:16.085Z,9.00
2022-10-09T03:53:42.960Z,9.20
2022-10-09T03:56:09.833Z,8.70
2022-10-09T04:01:03.989Z,8.80
2022-10-09T04:03:30.942Z,9.10
2022-10-09T04:05:57.780Z,8.90
2022-10-09T04:08:24.671Z,8.90
2022-10-09T04:10:58.928Z,8.80
2022-10-09T04:13:25.935Z,8.90
2022-10-09T04:15:53.798Z,9.00
2022-10-09T04:18:21.003Z,8.50
2022-10-09T04:20:53.078Z,8.60
2022-10-09T04:23:22.730Z,8.40
2022-10-09T04:25:56.746Z,8.90
2022-10-09T04:28:23.976Z,8.90
2022-10-09T04:33:18.330Z,8.40
2022-10-09T04:35:46.923Z,8.50
2022-10-09T04:38:13.815Z,8.40
2022-10-09T04:40:41.173Z,8.50
2022-10-09T04:43:08.248Z,8.60
2022-10-09T04:45:40.108Z,8.60
2022-10-09T04:48:07.049Z,8.60
2022-10-09T04:50:33.906Z,8.60
2022-10-09T05:00:22.494Z,8.60
2022-10-09T05:02:49.516Z,8.50
2022-10-09T05:05:16.651Z,8.70
2022-10-09T05:07:43.596Z,8.70
2022-10-09T05:10:10.459Z,8.60
2022-10-09T05:12:37.338Z,8.80
2022-10-09T05:15:04.952Z,8.70
2022-10-09T05:17:31.883Z,8.40
2022-10-09T05:19:58.838Z,8.80
2022-10-09T05:22:25.695Z,8.80
2022-10-09T05:29:47.155Z,8.50
2022-10-09T05:34:41.877Z,8.90
2022-10-09T05:39:36.176Z,8.90
2022-10-09T05:42:03.148Z,8.60
2022-10-09T05:44:30.129Z,8.80
2022-10-09T05:51:52.180Z,8.80
2022-10-09T05:54:19.128Z,8.90
2022-10-09T05:56:49.381Z,9.20
2022-10-09T05:59:19.994Z,9.20
2022-10-09T06:01:51.992Z,9.50
2022-10-09T06:04:21.981Z,9.30
2022-10-09T06:06:49.531Z,9.70
2022-10-09T06:09:18.604Z,9.80
2022-10-09T06:11:46.088Z,9.90
2022-10-09T06:14:13.678Z,10.00
2022-10-09T06:16:43.078Z,10.10
2022-10-09T06:19:15.877Z,10.70
2022-10-09T06:21:44.027Z,10.50
2022-10-09T06:24:27.372Z,10.60
2022-10-09T06:26:55.497Z,10.80
2022-10-09T06:29:22.416Z,10.70
2022-10-09T06:31:49.494Z,10.80
2022-10-09T06:34:16.536Z,10.90
2022-10-09T06:36:43.431Z,10.80
2022-10-09T06:39:11.104Z,10.90
2022-10-09T06:41:38.120Z,11.00
2022-10-09T06:44:07.729Z,11.00
2022-10-09T06:46:37.755Z,10.90
2022-10-09T06:49:06.073Z,11.80
2022-10-09T06:51:34.253Z,10.90
2022-10-09T06:54:04.210Z,11.10
2022-10-09T06:56:32.336Z,11.10
2022-10-09T06:59:04.547Z,10.80
2022-10-09T07:01:32.557Z,11.10
2022-10-09T07:04:07.034Z,12.30
2022-10-09T07:06:37.578Z,10.90
2022-10-09T07:09:07.192Z,11.20
2022-10-09T07:11:36.267Z,10.90
2022-10-09T07:14:05.735Z,11.00
2022-10-09T07:16:37.242Z,10.80
2022-10-09T07:19:07.741Z,11.00
2022-10-09T07:21:36.003Z,11.00
2022-10-09T07:24:04.305Z,11.30
2022-10-09T07:26:34.669Z,11.20
2022-10-09T07:29:02.511Z,11.50
2022-10-09T07:31:29.483Z,11.20
2022-10-09T07:33:57.078Z,11.40
2022-10-09T07:36:24.151Z,11.60
2022-10-09T07:38:53.343Z,11.50
2022-10-09T07:41:21.685Z,11.50
2022-10-09T07:43:48.607Z,12.20
2022-10-09T07:46:18.482Z,11.80
2022-10-09T07:48:46.030Z,11.70
2022-10-09T07:51:17.517Z,12.00
2022-10-09T07:53:45.096Z,12.00
2022-10-09T07:56:16.544Z,11.90
2022-10-09T08:01:14.014Z,12.00
2022-10-09T08:06:10.824Z,12.10
2022-10-09T08:08:37.796Z,12.60
2022-10-09T08:11:13.417Z,12.10
2022-10-09T08:13:40.981Z,12.50
2022-10-09T08:16:08.634Z,12.50
2022-10-09T08:18:35.950Z,12.50
2022-10-09T08:21:05.693Z,12.80
2022-10-09T08:23:32.619Z,13.90
2022-10-09T08:25:59.661Z,15.10
2022-10-09T08:28:26.929Z,15.40
2022-10-09T08:30:54.086Z,15.00
2022-10-09T08:35:51.254Z,14.10
2022-10-09T08:38:44.815Z,13.90
2022-10-09T08:41:08.431Z,13.90
2022-10-09T08:43:40.029Z,14.00
2022-10-09T08:46:20.409Z,13.90
2022-10-09T08:48:49.312Z,13.60
2022-10-09T08:51:27.796Z,13.70
2022-10-09T08:53:58.556Z,14.10
2022-10-09T08:56:27.085Z,14.50
2022-10-09T08:58:54.099Z,14.70
2022-10-09T09:01:31.367Z,15.10
2022-10-09T09:04:10.113Z,15.00
2022-10-09T09:06:52.217Z,16.60
2022-10-09T09:09:36.768Z,15.30
2022-10-09T09:12:25.431Z,15.60
2022-10-09T09:15:00.961Z,16.30
2022-10-09T09:17:51.183Z,16.90
2022-10-09T09:20:46.059Z,17.60
2022-10-09T09:23:16.498Z,17.70
2022-10-09T09:25:45.886Z,17.40
2022-10-09T09:28:20.271Z,17.00
2022-10-09T09:31:17.615Z,16.80
2022-10-09T09:33:54.037Z,16.50
2022-10-09T09:36:46.394Z,16.00
2022-10-09T09:42:21.955Z,15.70
2022-10-09T09:44:59.444Z,16.10
2022-10-09T09:47:40.488Z,16.10
2022-10-09T09:50:18.504Z,16.00
2022-10-09T09:52:56.159Z,16.20
2022-10-09T09:55:29.689Z,16.30
2022-10-09T09:58:08.236Z,16.30
2022-10-09T10:00:35.885Z,16.00
2022-10-09T10:03:15.258Z,15.80
2022-10-09T10:05:44.005Z,15.50
2022-10-09T10:08:26.398Z,16.20
2022-10-09T10:10:59.556Z,14.90
2022-10-09T10:13:38.629Z,15.00
2022-10-09T10:16:08.306Z,15.00
2022-10-09T10:18:41.130Z,14.70
2022-10-09T10:21:15.369Z,14.90
2022-10-09T10:26:31.275Z,14.70
2022-10-09T10:29:14.674Z,14.70
2022-10-09T10:31:57.301Z,14.70
2022-10-09T10:34:33.660Z,14.60
2022-10-09T10:37:39.270Z,14.70
2022-10-09T10:40:12.631Z,14.60
2022-10-09T10:42:57.369Z,14.50
2022-10-09T10:45:44.069Z,14.50
2022-10-09T10:48:35.861Z,14.50
2022-10-09T10:51:34.042Z,14.50
2022-10-09T10:54:24.139Z,14.50
2022-10-09T10:57:08.646Z,14.30
2022-10-09T10:59:40.166Z,14.30
2022-10-09T11:02:09.834Z,14.20
2022-10-09T11:05:03.193Z,14.30
2022-10-09T11:07:39.519Z,14.20
2022-10-09T11:10:09.456Z,14.20
2022-10-09T11:13:01.063Z,14.00
2022-10-09T11:15:48.882Z,14.00
2022-10-09T11:18:32.546Z,13.80
2022-10-09T11:21:21.367Z,13.80
2022-10-09T11:23:50.958Z,13.70
2022-10-09T11:26:20.603Z,13.80
2022-10-09T11:29:04.975Z,13.90
2022-10-09T11:31:41.656Z,14.60
2022-10-09T11:34:26.975Z,14.00
2022-10-09T11:36:54.674Z,14.00
2022-10-09T11:39:28.722Z,14.00
2022-10-09T11:41:56.036Z,14.20
2022-10-09T11:44:54.096Z,14.30
2022-10-09T11:47:23.704Z,14.40
2022-10-09T11:50:29.138Z,14.20
2022-10-09T11:52:58.961Z,14.10
2022-10-09T11:55:29.707Z,14.00
2022-10-09T11:58:26.047Z,13.80
2022-10-09T12:00:56.107Z,13.70
2022-10-09T12:03:33.629Z,13.70
2022-10-09T12:06:08.531Z,13.50
2022-10-09T12:08:36.973Z,13.40
2022-10-09T12:11:12.077Z,13.30
2022-10-09T12:13:39.148Z,13.20
2022-10-09T12:16:08.310Z,13.30
2022-10-09T12:18:44.383Z,14.10
2022-10-09T12:21:45.906Z,13.20
2022-10-09T12:24:17.367Z,13.40
2022-10-09T12:26:45.347Z,13.50
2022-10-09T12:29:21.862Z,13.40
2022-10-09T12:31:52.850Z,13.60
2022-10-09T12:34:29.553Z,13.70
2022-10-09T12:37:13.754Z,13.70
2022-10-09T12:39:41.420Z,13.60
2022-10-09T12:42:18.815Z,13.80
2022-10-09T12:44:47.869Z,14.20
2022-10-09T12:47:20.782Z,13.90
2022-10-09T12:50:24.525Z,13.90
2022-10-09T12:52:58.104Z,14.00
2022-10-09T12:55:33.102Z,13.90
2022-10-09T12:58:03.559Z,14.00
2022-10-09T13:00:32.583Z,14.10
2022-10-09T13:02:59.644Z,14.00
2022-10-09T13:05:41.029Z,14.10
2022-10-09T13:08:23.789Z,14.30
2022-10-09T13:10:53.103Z,14.30
2022-10-09T13:13:27.454Z,14.50
2022-10-09T13:16:10.664Z,14.50
2022-10-09T13:18:38.278Z,14.70
2022-10-09T13:21:24.528Z,14.60
2022-10-09T13:23:51.493Z,14.80
2022-10-09T13:26:25.582Z,15.00
2022-10-09T13:28:53.356Z,14.90
2022-10-09T13:31:20.829Z,15.00
2022-10-09T13:33:48.248Z,15.30
2022-10-09T13:36:16.755Z,15.20
2022-10-09T13:41:25.030Z,14.90
2022-10-09T13:43:53.833Z,14.90
2022-10-09T13:48:48.155Z,14.70
2022-10-09T13:51:15.179Z,14.90
2022-10-09T13:53:42.068Z,14.70
2022-10-09T13:56:09.673Z,14.70
2022-10-09T13:58:36.975Z,14.70
2022-10-09T14:01:04.258Z,14.80
2022-10-09T14:03:31.259Z,14.60
2022-10-09T14:05:59.880Z,14.20
2022-10-09T14:08:27.134Z,14.00
2022-10-09T14:10:54.197Z,13.70
2022-10-09T14:13:21.892Z,13.50
2022-10-09T14:15:49.150Z,13.70
2022-10-09T14:18:16.031Z,14.30
2022-10-09T14:20:42.892Z,13.50
2022-10-09T14:25:37.377Z,13.60
2022-10-09T14:28:04.340Z,13.30
2022-10-09T14:32:59.449Z,13.10
2022-10-09T14:35:26.335Z,13.20
2022-10-09T14:37:53.220Z,13.30
2022-10-09T14:40:20.084Z,13.10
2022-10-09T14:42:47.142Z,13.10
2022-10-09T14:47:41.511Z,12.50
2022-10-09T14:50:08.756Z,13.40
2022-10-09T14:57:32.973Z,12.30
2022-10-09T15:00:03.167Z,12.40
2022-10-09T15:04:57.924Z,12.30
2022-10-09T15:07:28.016Z,12.10
2022-10-09T15:09:55.230Z,12.40
2022-10-09T15:12:22.112Z,12.20
2022-10-09T15:14:49.129Z,11.90
2022-10-09T15:17:16.017Z,11.80
2022-10-09T15:19:42.847Z,11.60
2022-10-09T15:24:36.880Z,11.50
2022-10-09T15:27:04.124Z,11.30
2022-10-09T15:29:31.001Z,11.40
2022-10-09T15:31:57.833Z,11.00
2022-10-09T15:34:24.816Z,11.10
2022-10-09T15:36:51.980Z,11.30
2022-10-09T15:39:18.885Z,11.40
2022-10-09T15:41:47.282Z,10.80
2022-10-09T15:44:19.231Z,10.60
2022-10-09T15:46:47.402Z,10.80
2022-10-09T15:49:14.546Z,10.50
2022-10-09T15:51:41.559Z,10.60
2022-10-09T15:54:08.600Z,10.50
2022-10-09T15:56:39.717Z,10.50
2022-10-09T15:59:07.556Z,10.30
2022-10-09T16:01:34.418Z,10.20
2022-10-09T16:04:01.268Z,10.60
2022-10-09T16:06:28.148Z,10.40
2022-10-09T16:08:57.187Z,10.20
2022-10-09T16:11:26.430Z,10.00
2022-10-09T16:13:54.272Z,10.20
2022-10-09T16:16:23.526Z,10.00
2022-10-09T16:18:51.098Z,10.00
2022-10-09T16:21:23.894Z,9.80
2022-10-09T16:26:25.823Z,9.60
2022-10-09T16:28:52.904Z,9.60
2022-10-09T16:31:26.103Z,9.60
2022-10-09T16:33:53.190Z,10.00
2022-10-09T16:36:20.291Z,9.30
2022-10-09T16:38:47.355Z,9.30
2022-10-09T16:41:18.012Z,9.10
2022-10-09T16:43:47.044Z,9.30
2022-10-09T16:49:02.081Z,9.20
2022-10-09T16:51:33.336Z,9.20
2022-10-09T16:54:03.967Z,9.40
2022-10-09T16:56:33.404Z,9.10
2022-10-09T16:59:02.027Z,8.50
2022-10-09T17:01:29.454Z,9.10
2022-10-09T17:03:57.928Z,8.90
2022-10-09T17:06:26.346Z,8.90
2022-10-09T17:08:55.149Z,8.90
2022-10-09T17:11:22.765Z,8.50
2022-10-09T17:13:49.685Z,8.70
2022-10-09T17:16:19.780Z,8.90
2022-10-09T17:18:47.618Z,8.80
2022-10-09T17:21:15.786Z,9.10
2022-10-09T17:23:42.841Z,8.70
2022-10-09T17:26:16.654Z,8.60
2022-10-09T17:28:44.052Z,8.50
2022-10-09T17:31:14.402Z,8.70
2022-10-09T17:33:44.933Z,8.50
2022-10-09T17:36:21.255Z,8.60
2022-10-09T17:38:49.827Z,8.40
2022-10-09T17:41:19.613Z,8.70
2022-10-09T17:43:46.439Z,8.50
2022-10-09T17:46:17.574Z,8.40
2022-10-09T17:48:52.708Z,7.90
2022-10-09T17:51:22.999Z,8.50
2022-10-09T17:53:49.986Z,8.50
2022-10-09T17:56:18.097Z,8.10
2022-10-09T17:58:47.472Z,7.80
2022-10-09T18:01:16.285Z,8.50
2022-10-09T18:03:44.078Z,8.20
2022-10-09T18:06:14.900Z,8.20
2022-10-09T18:08:42.004Z,7.80
2022-10-09T18:11:15.935Z,7.90
2022-10-09T18:13:44.239Z,8.40
2022-10-09T18:16:24.219Z,8.10
2022-10-09T18:18:51.118Z,8.20
2022-10-09T18:21:18.120Z,8.00
2022-10-09T18:23:46.755Z,7.50
2022-10-09T18:26:17.297Z,7.90
2022-10-09T18:28:47.510Z,8.10
2022-10-09T18:31:18.943Z,8.10
2022-10-09T18:33:46.366Z,7.80
2022-10-09T18:36:19.558Z,7.90
2022-10-09T18:38:49.159Z,7.50
2022-10-09T18:41:16.911Z,7.40
2022-10-09T18:43:43.860Z,8.00
2022-10-09T18:46:11.355Z,7.50
2022-10-09T18:48:40.862Z,7.80
2022-10-09T18:51:13.969Z,7.60
2022-10-09T18:53:43.934Z,7.40
2022-10-09T18:56:14.779Z,7.90
2022-10-09T18:58:42.656Z,7.20
2022-10-09T19:03:36.929Z,7.30
2022-10-09T19:06:04.898Z,7.50
2022-10-09T19:10:59.130Z,7.60
2022-10-09T19:13:26.469Z,7.50
2022-10-09T19:15:55.687Z,7.10
2022-10-09T19:18:22.791Z,7.30
2022-10-09T19:20:50.134Z,7.50
2022-10-09T19:23:17.317Z,7.60
2022-10-09T19:25:55.927Z,7.20
2022-10-09T19:28:24.790Z,7.00
2022-10-09T19:30:52.374Z,6.90
2022-10-09T19:33:19.263Z,7.20
2022-10-09T19:35:52.005Z,7.30
2022-10-09T19:38:19.462Z,7.60
2022-10-09T19:40:46.670Z,6.80
2022-10-09T19:43:15.124Z,6.70
2022-10-09T19:48:09.622Z,6.80
2022-10-09T19:50:46.569Z,7.10
2022-10-09T19:53:13.926Z,7.10
2022-10-09T19:55:41.128Z,6.60
2022-10-09T19:58:08.659Z,6.80
2022-10-09T20:00:42.575Z,6.50
2022-10-09T20:03:10.150Z,6.90
2022-10-09T20:05:37.180Z,6.70
2022-10-09T20:08:04.393Z,6.80
2022-10-09T20:10:31.403Z,7.00
2022-10-09T20:12:58.311Z,6.80
2022-10-09T20:17:52.642Z,6.60
2022-10-09T20:20:19.573Z,6.60
2022-10-09T20:22:46.604Z,6.50
2022-10-09T20:25:13.543Z,6.60
2022-10-09T20:30:08.216Z,6.10
2022-10-09T20:32:37.024Z,6.60
2022-10-09T20:35:05.425Z,6.20
2022-10-09T20:40:02.138Z,6.40
2022-10-09T20:42:29.083Z,6.80
2022-10-09T20:44:55.984Z,6.20
2022-10-09T20:47:22.978Z,6.20
2022-10-09T20:49:49.963Z,6.60
2022-10-09T20:52:16.819Z,6.60
2022-10-09T20:54:43.711Z,6.50
2022-10-09T20:57:10.657Z,6.40
2022-10-09T20:59:37.550Z,6.50
2022-10-09T21:02:04.448Z,5.90
2022-10-09T21:04:32.170Z,5.90
2022-10-09T21:06:59.054Z,5.90
2022-10-09T21:09:29.591Z,5.90
2022-10-09T21:11:59.232Z,6.10
2022-10-09T21:14:26.208Z,5.90
2022-10-09T21:16:53.061Z,6.10
2022-10-09T21:19:19.965Z,5.80
2022-10-09T21:21:50.889Z,6.20
2022-10-09T21:24:18.128Z,5.90
2022-10-09T21:26:47.107Z,5.80
2022-10-09T21:29:14.182Z,6.00
2022-10-09T21:31:41.060Z,6.10
2022-10-09T21:36:46.877Z,5.90
2022-10-09T21:39:23.050Z,6.00
2022-10-09T21:41:49.976Z,5.70
2022-10-09T21:44:16.827Z,6.00
2022-10-09T21:46:43.692Z,5.60
2022-10-09T21:49:20.759Z,5.90
2022-10-09T21:51:47.841Z,6.00
2022-10-09T21:56:42.318Z,5.60
2022-10-09T21:59:09.794Z,5.50
2022-10-09T22:01:36.722Z,5.60
2022-10-09T22:04:03.940Z,5.90
2022-10-09T22:06:30.815Z,6.10
2022-10-09T22:08:59.600Z,5.80
2022-10-09T22:13:55.363Z,5.80
2022-10-09T22:16:22.253Z,5.70
2022-10-09T22:18:49.168Z,6.00
2022-10-09T22:21:16.945Z,5.70
2022-10-09T22:23:44.049Z,5.90
2022-10-09T22:26:14.344Z,5.90
2022-10-09T22:28:41.576Z,5.90
2022-10-09T22:31:09.589Z,6.10
2022-10-09T22:33:37.391Z,6.00
2022-10-09T22:36:13.253Z,5.70
2022-10-09T22:38:41.407Z,6.00
2022-10-09T22:41:10.043Z,5.70
2022-10-09T22:43:38.199Z,5.60
2022-10-09T22:46:09.953Z,5.70
2022-10-09T22:48:37.398Z,5.50
2022-10-09T22:51:06.209Z,5.40
2022-10-09T22:53:33.674Z,5.60
2022-10-09T22:56:00.553Z,5.80
2022-10-09T22:58:27.467Z,5.30
2022-10-09T23:00:54.694Z,5.30
2022-10-09T23:03:21.570Z,6.10
2022-10-09T23:05:48.475Z,5.20
2022-10-09T23:08:15.375Z,5.20
2022-10-09T23:13:09.486Z,5.20
2022-10-09T23:15:37.322Z,5.60
2022-10-09T23:18:05.113Z,5.40
2022-10-09T23:20:35.148Z,5.30
2022-10-09T23:23:01.954Z,5.20
2022-10-09T23:25:28.853Z,5.30
2022-10-09T23:27:55.759Z,5.20
2022-10-09T23:30:22.641Z,5.40
2022-10-09T23:32:52.667Z,5.20
2022-10-09T23:37:47.244Z,5.40
2022-10-09T23:40:14.259Z,5.40
2022-10-09T23:42:41.163Z,5.20
2022-10-09T23:45:08.999Z,5.20
2022-10-09T23:47:35.836Z,5.20
2022-10-09T23:50:03.155Z,5.40
2022-10-09T23:54:57.282Z,4.70
2022-10-09T23:57:24.168Z,5.00
2022-10-09T23:59:51.119Z,4.70
